Time;durP1;ratioP1;P1;durP2;ratioP2;P2;SDS_P1;SDS_P2;PMS_P1;PMS_P2;Temp;Humidity;BMP_temperature;BMP_pressure;BME280_temperature;BME280_humidity;BME280_pressure;Samples;Min_cycle;Max_cycle;Signal;HPM_P1;HPM_P2
2023/03/17 00:01:43;;;;;;;0.00;0.00;;;7.90;1.00;;;;;;5053659;28;20095;-85
2023/03/17 00:04:12;;;;;;;0.75;0.60;;;7.90;1.00;;;;;;5053443;28;20482;-85
2023/03/17 00:06:39;;;;;;;0.17;0.10;;;7.90;1.00;;;;;;5020648;28;20095;-84
2023/03/17 00:09:10;;;;;;;0.00;0.00;;;7.90;1.00;;;;;;5020749;28;20045;-84
2023/03/17 00:11:36;;;;;;;0.00;0.00;;;8.00;1.00;;;;;;5053547;28;20061;-85
2023/03/17 00:14:02;;;;;;;0.00;0.00;;;7.90;1.00;;;;;;5053813;28;20045;-85
2023/03/17 00:16:31;;;;;;;0.00;0.00;;;8.00;1.00;;;;;;5053371;28;20057;-85
2023/03/17 00:18:57;;;;;;;0.10;0.00;;;8.00;1.00;;;;;;5053049;28;20404;-84
2023/03/17 00:21:32;;;;;;;0.00;0.00;;;8.00;1.00;;;;;;5053577;28;20051;-85
2023/03/17 00:23:59;;;;;;;0.00;0.00;;;8.00;1.00;;;;;;5053326;28;20087;-84
2023/03/17 00:26:25;;;;;;;0.00;0.00;;;8.00;1.00;;;;;;5053348;28;20080;-85
2023/03/17 00:28:53;;;;;;;0.17;0.17;;;8.00;1.00;;;;;;5036621;28;20049;-85
2023/03/17 00:31:24;;;;;;;0.00;0.00;;;8.00;1.00;;;;;;5020082;28;20045;-85
2023/03/17 00:33:51;;;;;;;0.10;0.10;;;8.00;1.00;;;;;;5036611;28;20044;-85
2023/03/17 00:36:22;;;;;;;0.00;0.00;;;8.00;99.90;;;;;;5052867;28;20049;-85
2023/03/17 00:38:49;;;;;;;0.08;0.00;;;8.00;99.90;;;;;;5052829;28;20052;-85
2023/03/17 00:41:15;;;;;;;0.00;0.00;;;8.00;99.90;;;;;;5053170;28;20044;-84
2023/03/17 00:43:41;;;;;;;0.00;0.00;;;8.10;99.90;;;;;;5035526;28;20136;-85
2023/03/17 00:46:34;;;;;;;0.20;0.00;;;8.10;99.90;;;;;;5020038;28;20477;-85
2023/03/17 00:49:01;;;;;;;0.47;0.20;;;8.10;99.90;;;;;;5053818;28;20059;-85
2023/03/17 00:51:28;;;;;;;0.00;0.00;;;8.10;99.90;;;;;;5053591;28;20439;-85
2023/03/17 00:53:54;;;;;;;0.00;0.00;;;8.20;99.90;;;;;;5054193;28;20053;-85
2023/03/17 00:56:20;;;;;;;0.00;0.00;;;8.10;99.90;;;;;;5019848;28;20057;-85
2023/03/17 00:58:47;;;;;;;0.00;0.00;;;8.20;99.90;;;;;;5052461;28;20067;-85
2023/03/17 01:01:13;;;;;;;0.00;0.00;;;8.20;99.90;;;;;;5036159;28;20037;-85
2023/03/17 01:03:40;;;;;;;0.00;0.00;;;8.10;99.90;;;;;;5051977;28;20056;-85
2023/03/17 01:06:09;;;;;;;0.00;0.00;;;8.10;99.90;;;;;;5035965;28;20113;-85
2023/03/17 01:08:35;;;;;;;0.00;0.00;;;8.10;99.90;;;;;;5052586;28;20049;-85
2023/03/17 01:11:02;;;;;;;0.30;0.00;;;8.10;99.90;;;;;;5035658;28;20508;-85
2023/03/17 01:13:28;;;;;;;0.03;0.00;;;8.10;99.90;;;;;;5052396;28;20076;-85
2023/03/17 01:15:55;;;;;;;0.00;0.00;;;8.10;99.90;;;;;;5052731;28;20060;-85
2023/03/17 01:18:21;;;;;;;0.00;0.00;;;8.10;99.90;;;;;;5035672;28;20400;-86
2023/03/17 01:20:47;;;;;;;0.00;0.00;;;8.00;99.90;;;;;;5035955;28;20060;-85
2023/03/17 01:23:13;;;;;;;0.00;0.00;;;8.00;99.90;;;;;;5035831;28;20044;-85
2023/03/17 01:25:41;;;;;;;0.00;0.00;;;8.10;99.90;;;;;;5035513;28;20053;-85
2023/03/17 01:28:11;;;;;;;0.00;0.00;;;8.10;99.90;;;;;;5052525;28;20055;-85
2023/03/17 01:30:39;;;;;;;0.57;0.47;;;8.10;99.90;;;;;;5052911;28;20052;-85
2023/03/17 01:33:09;;;;;;;0.15;0.15;;;8.10;99.90;;;;;;5052167;28;20049;-85
2023/03/17 01:35:37;;;;;;;0.00;0.00;;;8.10;99.90;;;;;;5052246;28;20125;-85
2023/03/17 01:38:03;;;;;;;0.00;0.00;;;8.10;99.90;;;;;;5035343;28;20188;-85
2023/03/17 01:40:33;;;;;;;0.00;0.00;;;8.00;99.90;;;;;;5052021;28;20490;-85
2023/03/17 01:43:08;;;;;;;0.00;0.00;;;8.00;99.90;;;;;;5052172;28;20103;-85
2023/03/17 01:46:11;;;;;;;0.80;0.47;;;8.10;99.90;;;;;;5052048;28;20489;-85
2023/03/17 01:48:47;;;;;;;2.90;0.30;;;8.00;99.90;;;;;;5051849;28;20471;-85
2023/03/17 01:51:41;;;;;;;0.00;0.00;;;8.00;99.90;;;;;;5052416;28;20084;-85
2023/03/17 01:54:25;;;;;;;0.00;0.00;;;8.00;99.90;;;;;;5052265;28;20048;-85
2023/03/17 01:56:52;;;;;;;0.38;0.25;;;8.00;99.90;;;;;;5051982;28;20056;-85
2023/03/17 01:59:22;;;;;;;0.15;0.15;;;8.00;99.90;;;;;;5035184;28;20519;-85
2023/03/17 02:01:51;;;;;;;0.00;0.00;;;8.00;99.90;;;;;;5052661;28;20064;-85
2023/03/17 02:04:19;;;;;;;0.13;0.10;;;8.00;99.90;;;;;;5035442;28;20045;-85
2023/03/17 02:06:48;;;;;;;0.65;0.65;;;8.00;99.90;;;;;;5052071;28;20489;-85
2023/03/17 02:09:14;;;;;;;0.05;0.00;;;8.00;99.90;;;;;;5051831;28;20461;-85
2023/03/17 02:11:40;;;;;;;0.00;0.00;;;8.00;99.90;;;;;;5035574;28;20056;-85
2023/03/17 02:14:07;;;;;;;0.08;0.00;;;8.00;99.90;;;;;;5037005;28;20055;-85
2023/03/17 02:16:33;;;;;;;0.08;0.00;;;8.10;99.90;;;;;;5055770;28;20059;-85
2023/03/17 02:18:59;;;;;;;0.00;0.00;;;8.00;99.90;;;;;;5055346;28;20052;-85
2023/03/17 02:21:39;;;;;;;0.47;0.47;;;8.00;99.90;;;;;;5022609;28;20049;-85
2023/03/17 02:24:11;;;;;;;0.00;0.00;;;8.00;99.90;;;;;;5055117;28;20053;-85
2023/03/17 02:26:37;;;;;;;0.10;0.10;;;8.00;99.90;;;;;;5055700;28;20045;-84
2023/03/17 02:29:04;;;;;;;0.03;0.03;;;8.00;99.90;;;;;;5055512;28;20122;-85
2023/03/17 02:31:30;;;;;;;0.00;0.00;;;8.00;99.90;;;;;;5022611;28;20049;-85
2023/03/17 02:33:56;;;;;;;0.00;0.00;;;8.00;99.90;;;;;;5022414;28;20040;-85
2023/03/17 02:36:22;;;;;;;0.00;0.00;;;8.00;99.90;;;;;;5055280;28;20132;-85
2023/03/17 02:38:48;;;;;;;0.85;0.20;;;8.00;99.90;;;;;;5038726;28;20045;-85
2023/03/17 02:41:14;;;;;;;0.00;0.00;;;8.00;99.90;;;;;;5055325;28;20059;-85
2023/03/17 02:43:41;;;;;;;0.00;0.00;;;8.00;99.90;;;;;;5021358;28;20555;-85
2023/03/17 02:46:06;;;;;;;0.00;0.00;;;8.00;99.90;;;;;;5038724;28;20053;-84
2023/03/17 02:48:35;;;;;;;0.00;0.00;;;8.00;99.90;;;;;;5055237;28;20052;-85
2023/03/17 02:51:01;;;;;;;0.00;0.00;;;8.00;99.90;;;;;;5054890;28;20040;-85
2023/03/17 02:53:27;;;;;;;0.00;0.00;;;8.00;99.90;;;;;;5021973;28;20052;-85
2023/03/17 02:55:52;;;;;;;0.00;0.00;;;8.00;99.90;;;;;;5055012;28;20045;-85
2023/03/17 02:58:18;;;;;;;0.00;0.00;;;8.00;99.90;;;;;;5038194;28;20071;-85
2023/03/17 03:00:44;;;;;;;0.15;0.15;;;7.90;99.90;;;;;;5038357;28;20080;-85
2023/03/17 03:03:10;;;;;;;0.08;0.08;;;7.90;99.90;;;;;;5054803;28;20099;-85
2023/03/17 03:05:36;;;;;;;1.35;0.05;;;7.90;99.90;;;;;;5054714;28;20080;-85
2023/03/17 03:08:02;;;;;;;0.00;0.00;;;7.90;99.90;;;;;;5054772;28;20084;-85
2023/03/17 03:10:27;;;;;;;6.65;0.65;;;7.90;99.90;;;;;;5055017;28;20040;-85
2023/03/17 03:12:53;;;;;;;0.52;0.00;;;7.90;99.90;;;;;;5054526;28;20094;-85
2023/03/17 03:15:19;;;;;;;0.00;0.00;;;7.90;99.90;;;;;;5054519;28;20143;-85
2023/03/17 03:17:45;;;;;;;0.10;0.00;;;7.80;99.90;;;;;;5037898;28;20394;-85
2023/03/17 03:20:12;;;;;;;0.08;0.08;;;7.80;99.90;;;;;;5037791;28;20069;-85
2023/03/17 03:22:38;;;;;;;0.00;0.00;;;7.80;99.90;;;;;;5021467;28;20041;-85
2023/03/17 03:25:04;;;;;;;0.00;0.00;;;7.80;99.90;;;;;;5053688;28;20044;-85
2023/03/17 03:27:31;;;;;;;0.00;0.00;;;7.70;99.90;;;;;;5037896;28;20071;-85
2023/03/17 03:29:56;;;;;;;0.00;0.00;;;7.70;99.90;;;;;;5053942;28;20413;-85
2023/03/17 03:32:22;;;;;;;0.00;0.00;;;7.80;99.90;;;;;;5054109;28;20036;-85
2023/03/17 03:34:48;;;;;;;0.00;0.00;;;7.80;99.90;;;;;;5054140;28;20044;-85
2023/03/17 03:37:14;;;;;;;0.00;0.00;;;7.80;99.90;;;;;;5054357;28;20045;-85
2023/03/17 03:39:40;;;;;;;0.00;0.00;;;7.80;99.90;;;;;;5054115;28;20049;-85
2023/03/17 03:42:06;;;;;;;0.65;0.10;;;7.80;99.90;;;;;;5037462;28;20116;-85
2023/03/17 03:44:31;;;;;;;0.00;0.00;;;7.80;99.90;;;;;;5019773;28;20057;-85
2023/03/17 03:46:57;;;;;;;0.00;0.00;;;7.80;99.90;;;;;;5053860;28;20053;-85
2023/03/17 03:49:23;;;;;;;0.00;0.00;;;7.80;99.90;;;;;;5053919;28;20101;-85
2023/03/17 03:51:49;;;;;;;0.13;0.00;;;7.80;99.90;;;;;;5037661;28;20055;-85
2023/03/17 03:54:14;;;;;;;0.55;0.00;;;7.80;99.90;;;;;;5037301;28;20041;-85
2023/03/17 03:56:40;;;;;;;0.00;0.00;;;7.90;99.90;;;;;;5037248;28;20041;-85
2023/03/17 03:59:06;;;;;;;0.00;0.00;;;7.90;99.90;;;;;;5037012;28;20055;-85
2023/03/17 04:01:32;;;;;;;0.00;0.00;;;7.90;99.90;;;;;;5037051;28;20060;-85
2023/03/17 04:03:57;;;;;;;0.10;0.10;;;7.90;99.90;;;;;;5037071;28;20041;-85
2023/03/17 04:06:23;;;;;;;0.25;0.25;;;8.00;99.90;;;;;;5037398;28;20135;-85
2023/03/17 04:08:49;;;;;;;0.13;0.00;;;8.00;99.90;;;;;;5037066;28;20080;-85
2023/03/17 04:11:15;;;;;;;0.00;0.00;;;8.00;99.90;;;;;;5053485;28;20067;-85
2023/03/17 04:13:41;;;;;;;0.00;0.00;;;8.00;99.90;;;;;;5052812;28;20048;-85
2023/03/17 04:16:07;;;;;;;0.38;0.10;;;8.00;99.90;;;;;;5036768;28;20064;-85
2023/03/17 04:18:34;;;;;;;0.08;0.08;;;8.00;99.90;;;;;;5052982;28;20090;-85
2023/03/17 04:21:00;;;;;;;0.00;0.00;;;8.00;99.90;;;;;;5053315;28;20055;-85
2023/03/17 04:23:27;;;;;;;0.00;0.00;;;8.00;99.90;;;;;;5004087;28;20052;-85
2023/03/17 04:25:53;;;;;;;0.00;0.00;;;8.00;99.90;;;;;;5036855;28;20409;-85
2023/03/17 04:28:19;;;;;;;0.00;0.00;;;8.00;99.90;;;;;;5020013;28;20041;-85
2023/03/17 04:30:45;;;;;;;0.10;0.00;;;8.00;99.90;;;;;;5036510;28;20097;-85
2023/03/17 04:33:12;;;;;;;0.00;0.00;;;8.00;99.90;;;;;;5052878;28;20088;-85
2023/03/17 04:35:38;;;;;;;0.00;0.00;;;8.00;99.90;;;;;;5036796;28;20102;-85
2023/03/17 04:38:04;;;;;;;0.00;0.00;;;8.10;99.90;;;;;;5019989;28;20428;-85
2023/03/17 04:40:29;;;;;;;0.10;0.10;;;8.00;99.90;;;;;;5052851;28;20551;-85
2023/03/17 04:42:55;;;;;;;0.00;0.00;;;8.10;99.90;;;;;;5035729;28;20440;-85
2023/03/17 04:45:21;;;;;;;0.00;0.00;;;8.10;99.90;;;;;;5052715;28;20049;-85
2023/03/17 04:47:47;;;;;;;0.00;0.00;;;8.10;99.90;;;;;;5036199;28;20136;-85
2023/03/17 04:50:13;;;;;;;0.00;0.00;;;8.10;99.90;;;;;;5036554;28;20045;-85
2023/03/17 04:52:39;;;;;;;0.20;0.20;;;8.10;99.90;;;;;;5019987;28;20465;-85
2023/03/17 04:55:10;;;;;;;0.17;0.00;;;8.20;99.90;;;;;;5052740;28;20124;-85
2023/03/17 04:57:36;;;;;;;0.00;0.00;;;8.20;99.90;;;;;;5036313;28;20048;-85
2023/03/17 05:00:04;;;;;;;0.15;0.15;;;8.10;99.90;;;;;;5052346;28;20045;-85
2023/03/17 05:02:30;;;;;;;0.20;0.00;;;8.20;99.90;;;;;;5035745;28;20047;-85
2023/03/17 05:04:56;;;;;;;0.00;0.00;;;8.10;99.90;;;;;;5036187;28;20049;-86
2023/03/17 05:07:22;;;;;;;1.00;0.13;;;8.20;99.90;;;;;;5019538;28;20037;-85
2023/03/17 05:09:47;;;;;;;0.03;0.03;;;8.10;99.90;;;;;;5019708;28;20044;-85
2023/03/17 05:12:13;;;;;;;0.00;0.00;;;8.10;99.90;;;;;;5036172;28;20040;-85
2023/03/17 05:14:39;;;;;;;0.00;0.00;;;8.10;99.90;;;;;;5051931;28;20049;-85
2023/03/17 05:17:05;;;;;;;1.00;0.40;;;8.10;99.90;;;;;;5035691;28;20071;-85
2023/03/17 05:19:30;;;;;;;0.00;0.00;;;8.10;99.90;;;;;;5052190;28;20048;-85
2023/03/17 05:21:56;;;;;;;0.10;0.05;;;8.10;99.90;;;;;;5003151;28;20139;-85
2023/03/17 05:24:22;;;;;;;0.00;0.00;;;8.10;99.90;;;;;;5052381;28;20107;-85
2023/03/17 05:26:48;;;;;;;0.08;0.08;;;8.10;99.90;;;;;;5052274;28;20071;-85
2023/03/17 05:29:13;;;;;;;0.00;0.00;;;8.10;99.90;;;;;;5019129;28;20060;-85
2023/03/17 05:31:39;;;;;;;0.00;0.00;;;8.10;99.90;;;;;;5052193;28;20075;-85
2023/03/17 05:34:05;;;;;;;0.32;0.32;;;8.10;99.90;;;;;;5052248;28;20131;-85
2023/03/17 05:36:32;;;;;;;0.05;0.00;;;8.10;99.90;;;;;;5035782;28;20474;-85
2023/03/17 05:38:58;;;;;;;0.00;0.00;;;8.10;99.90;;;;;;5052009;28;20048;-85
2023/03/17 05:41:24;;;;;;;0.55;0.10;;;8.10;99.90;;;;;;5035582;28;20432;-85
2023/03/17 05:43:50;;;;;;;0.00;0.00;;;8.10;99.90;;;;;;5018441;28;20135;-85
2023/03/17 05:46:16;;;;;;;1.15;0.47;;;8.10;99.90;;;;;;5052013;28;20098;-84
2023/03/17 05:48:42;;;;;;;0.00;0.00;;;8.10;99.90;;;;;;5035919;28;20045;-84
2023/03/17 05:51:08;;;;;;;0.00;0.00;;;8.10;99.90;;;;;;5055627;28;20041;-84
2023/03/17 05:53:35;;;;;;;0.00;0.00;;;8.10;99.90;;;;;;5055853;28;20511;-83
2023/03/17 05:56:01;;;;;;;0.00;0.00;;;8.10;99.90;;;;;;5055751;28;20077;-83
2023/03/17 05:58:26;;;;;;;0.00;0.00;;;8.00;99.90;;;;;;5022892;28;20162;-84
2023/03/17 06:00:52;;;;;;;0.28;0.20;;;8.00;99.90;;;;;;5039396;28;20052;-84
2023/03/17 06:03:18;;;;;;;0.00;0.00;;;8.00;99.90;;;;;;5056133;28;20136;-84
2023/03/17 06:05:44;;;;;;;0.00;0.00;;;8.00;99.90;;;;;;5055493;28;20405;-84
2023/03/17 06:08:11;;;;;;;0.20;0.00;;;8.00;99.90;;;;;;5055625;28;20385;-84
2023/03/17 06:10:36;;;;;;;0.00;0.00;;;8.00;99.90;;;;;;5055859;28;20045;-84
2023/03/17 06:13:03;;;;;;;0.00;0.00;;;8.00;99.90;;;;;;5038611;28;20512;-85
2023/03/17 06:15:29;;;;;;;0.00;0.00;;;8.10;99.90;;;;;;5055803;28;20045;-84
2023/03/17 06:17:55;;;;;;;0.00;0.00;;;8.10;99.90;;;;;;5038838;28;20049;-84
2023/03/17 06:20:20;;;;;;;0.00;0.00;;;8.20;99.90;;;;;;5039082;28;20048;-85
2023/03/17 06:22:46;;;;;;;0.00;0.00;;;8.20;99.90;;;;;;5055956;28;20045;-85
2023/03/17 06:25:14;;;;;;;0.00;0.00;;;8.30;99.90;;;;;;5038974;28;20481;-84
2023/03/17 06:27:40;;;;;;;0.00;0.00;;;8.30;99.90;;;;;;5055516;28;20096;-84
2023/03/17 06:30:07;;;;;;;0.00;0.00;;;8.40;99.90;;;;;;5055218;28;20076;-85
2023/03/17 06:32:33;;;;;;;0.00;0.00;;;8.30;99.90;;;;;;5022442;28;20087;-84
2023/03/17 06:34:58;;;;;;;0.10;0.00;;;8.40;99.90;;;;;;5055162;28;20053;-84
2023/03/17 06:37:24;;;;;;;0.47;0.28;;;8.50;99.90;;;;;;5022597;28;20056;-84
2023/03/17 06:39:50;;;;;;;0.00;0.00;;;8.50;99.90;;;;;;5038836;28;20048;-84
2023/03/17 06:42:16;;;;;;;0.17;0.17;;;8.70;99.90;;;;;;5055237;28;20132;-85
2023/03/17 06:44:42;;;;;;;0.00;0.00;;;8.80;99.90;;;;;;5037528;28;20136;-84
2023/03/17 06:47:08;;;;;;;0.05;0.05;;;9.00;49.50;;;;;;5055019;28;20053;-85
2023/03/17 06:49:33;;;;;;;0.00;0.00;;;9.30;62.50;;;;;;5038288;28;20071;-84
2023/03/17 06:51:59;;;;;;;0.52;0.17;;;9.70;6.50;;;;;;5054969;28;20147;-84
2023/03/17 06:54:25;;;;;;;0.00;0.00;;;10.10;1.00;;;;;;5038516;28;20052;-83
2023/03/17 06:56:52;;;;;;;0.25;0.25;;;10.20;99.90;;;;;;5038522;28;20049;-83
2023/03/17 06:59:18;;;;;;;0.00;0.00;;;10.50;99.90;;;;;;5025092;28;20045;-84
2023/03/17 07:01:45;;;;;;;0.00;0.00;;;10.60;99.90;;;;;;5034171;28;20049;-83
2023/03/17 07:04:11;;;;;;;0.00;0.00;;;10.60;99.90;;;;;;5034978;28;20482;-84
2023/03/17 07:06:37;;;;;;;11.05;0.28;;;10.60;99.90;;;;;;5034746;28;20423;-83
2023/03/17 07:09:04;;;;;;;0.00;0.00;;;10.40;99.90;;;;;;5018658;28;20394;-83
2023/03/17 07:11:32;;;;;;;0.35;0.35;;;10.40;99.90;;;;;;5034866;28;20054;-83
2023/03/17 07:13:58;;;;;;;0.00;0.00;;;10.50;99.90;;;;;;5018021;28;20052;-83
2023/03/17 07:16:24;;;;;;;0.00;0.00;;;10.50;99.90;;;;;;5018876;28;20045;-83
2023/03/17 07:18:50;;;;;;;0.00;0.00;;;10.50;99.90;;;;;;5018009;28;20099;-84
2023/03/17 07:21:16;;;;;;;0.00;0.00;;;10.60;99.90;;;;;;5034573;28;20038;-82
2023/03/17 07:23:42;;;;;;;0.00;0.00;;;10.70;99.90;;;;;;5034273;28;20573;-81
2023/03/17 07:26:08;;;;;;;0.00;0.00;;;10.80;95.50;;;;;;5034560;28;20132;-81
2023/03/17 07:28:34;;;;;;;0.13;0.03;;;10.80;88.40;;;;;;5018006;28;20056;-81
2023/03/17 07:31:01;;;;;;;0.13;0.13;;;10.90;70.50;;;;;;5034515;28;20095;-82
2023/03/17 07:33:27;;;;;;;0.00;0.00;;;10.80;39.10;;;;;;5037172;28;20053;-81
2023/03/17 07:35:53;;;;;;;0.00;0.00;;;10.70;48.90;;;;;;5023911;28;20052;-88
2023/03/17 07:38:19;;;;;;;0.00;0.00;;;10.60;58.30;;;;;;5020541;28;20041;-84
2023/03/17 07:40:47;;;;;;;0.10;0.10;;;10.50;67.00;;;;;;5020758;28;20102;-84
2023/03/17 07:43:15;;;;;;;0.55;0.32;;;10.50;52.30;;;;;;5020048;28;20413;-83
2023/03/17 07:45:42;;;;;;;0.10;0.10;;;10.50;57.80;;;;;;5037774;28;20459;-83
2023/03/17 07:48:08;;;;;;;0.00;0.00;;;10.50;62.00;;;;;;5037580;28;20105;-83
2023/03/17 07:50:35;;;;;;;1.17;0.00;;;10.80;88.40;;;;;;5021156;28;20048;-83
2023/03/17 07:53:02;;;;;;;0.00;0.00;;;11.20;57.50;;;;;;5029528;28;20053;-83
2023/03/17 07:55:31;;;;;;;0.00;0.00;;;11.60;1.00;;;;;;5037332;28;20132;-84
2023/03/17 07:57:57;;;;;;;0.00;0.00;;;11.60;1.00;;;;;;5004920;28;20385;-84
2023/03/17 08:00:23;;;;;;;0.00;0.00;;;11.60;1.00;;;;;;5020896;28;20048;-83
2023/03/17 08:02:50;;;;;;;0.10;0.10;;;11.50;1.00;;;;;;5020963;28;20060;-83
2023/03/17 08:05:16;;;;;;;2.40;0.35;;;11.40;1.00;;;;;;5020529;28;20366;-84
2023/03/17 08:07:42;;;;;;;0.10;0.00;;;11.30;1.00;;;;;;5004255;28;20131;-84
2023/03/17 08:10:10;;;;;;;0.00;0.00;;;11.40;1.00;;;;;;5036967;28;20124;-84
2023/03/17 08:12:36;;;;;;;0.00;0.00;;;11.50;1.00;;;;;;5036713;28;20049;-84
2023/03/17 08:15:02;;;;;;;0.00;0.00;;;11.50;1.00;;;;;;5020040;28;20133;-84
2023/03/17 08:17:27;;;;;;;0.00;0.00;;;11.60;1.00;;;;;;5003839;28;20052;-84
2023/03/17 08:19:54;;;;;;;0.00;0.00;;;11.60;1.00;;;;;;5036466;28;20067;-83
2023/03/17 08:22:20;;;;;;;0.00;0.00;;;11.70;1.00;;;;;;5020185;28;20485;-82
2023/03/17 08:24:46;;;;;;;0.10;0.10;;;11.70;1.00;;;;;;5020006;28;20048;-82
2023/03/17 08:27:12;;;;;;;0.20;0.20;;;11.70;1.00;;;;;;5004028;28;20079;-83
2023/03/17 08:29:38;;;;;;;0.32;0.32;;;11.70;1.00;;;;;;5036719;28;20055;-84
2023/03/17 08:32:04;;;;;;;2.40;0.52;;;11.70;1.00;;;;;;5036639;28;20045;-84
2023/03/17 08:34:30;;;;;;;0.10;0.10;;;11.80;1.00;;;;;;5036710;28;20131;-84
2023/03/17 08:36:56;;;;;;;0.00;0.00;;;11.90;1.00;;;;;;5020305;28;20554;-84
2023/03/17 08:39:23;;;;;;;0.00;0.00;;;11.90;1.00;;;;;;5003423;28;20080;-83
2023/03/17 08:41:49;;;;;;;3.13;1.27;;;11.90;1.00;;;;;;5036474;28;20095;-83
2023/03/17 08:44:15;;;;;;;0.00;0.00;;;11.90;1.00;;;;;;5035570;28;20481;-84
2023/03/17 08:46:41;;;;;;;0.03;0.03;;;11.90;1.00;;;;;;5020072;28;20131;-84
2023/03/17 08:49:08;;;;;;;0.20;0.13;;;12.00;1.00;;;;;;5036093;28;20048;-83
2023/03/17 08:51:36;;;;;;;0.00;0.00;;;12.00;1.00;;;;;;5019676;28;20052;-84
2023/03/17 08:54:03;;;;;;;0.00;0.00;;;12.10;99.90;;;;;;5019707;28;20052;-84
2023/03/17 08:56:29;;;;;;;0.00;0.00;;;12.10;99.90;;;;;;5019814;28;20135;-84
2023/03/17 08:58:55;;;;;;;0.00;0.00;;;12.20;99.90;;;;;;5052663;28;20170;-85
2023/03/17 09:01:23;;;;;;;0.10;0.10;;;12.20;99.90;;;;;;5036264;28;20052;-85
2023/03/17 09:03:53;;;;;;;0.25;0.25;;;12.20;99.90;;;;;;5036175;28;20055;-85
2023/03/17 09:06:20;;;;;;;0.00;0.00;;;12.30;99.90;;;;;;5035779;28;20592;-86
2023/03/17 09:08:48;;;;;;;0.00;0.00;;;12.50;99.90;;;;;;5036148;28;20092;-85
2023/03/17 09:11:19;;;;;;;10.15;0.90;;;12.50;99.90;;;;;;5036038;28;20161;-85
2023/03/17 09:13:46;;;;;;;0.00;0.00;;;12.70;99.90;;;;;;5019177;28;20123;-85
2023/03/17 09:16:16;;;;;;;0.00;0.00;;;12.70;99.90;;;;;;5035728;28;20052;-85
2023/03/17 09:18:43;;;;;;;0.00;0.00;;;12.70;99.90;;;;;;5035811;28;20567;-85
2023/03/17 09:21:11;;;;;;;0.03;0.00;;;12.80;99.90;;;;;;5018174;28;20053;-84
2023/03/17 09:23:37;;;;;;;0.00;0.00;;;12.70;99.90;;;;;;5018946;28;20080;-85
2023/03/17 09:26:03;;;;;;;0.75;0.30;;;12.90;99.90;;;;;;5010629;28;20478;-85
2023/03/17 09:28:28;;;;;;;1.08;0.25;;;13.10;99.90;;;;;;5016037;28;20466;-84
2023/03/17 09:31:03;;;;;;;0.30;0.30;;;13.40;99.90;;;;;;5015933;28;20053;-85
2023/03/17 09:33:29;;;;;;;0.00;0.00;;;13.70;99.90;;;;;;4983337;28;20050;-85
2023/03/17 09:36:01;;;;;;;0.00;0.00;;;13.90;99.90;;;;;;5015971;28;20607;-84
2023/03/17 09:38:27;;;;;;;0.00;0.00;;;14.10;99.90;;;;;;5010297;28;20051;-85
2023/03/17 09:41:14;;;;;;;0.00;0.00;;;14.40;99.90;;;;;;5019175;28;20132;-85
2023/03/17 09:44:00;;;;;;;0.00;0.00;;;14.70;99.90;;;;;;5035248;28;20057;-84
2023/03/17 09:46:37;;;;;;;0.00;0.00;;;15.00;99.90;;;;;;5035644;28;20049;-84
2023/03/17 09:49:27;;;;;;;0.05;0.05;;;15.30;99.90;;;;;;5035997;28;20056;-84
2023/03/17 09:51:53;;;;;;;0.00;0.00;;;15.30;99.90;;;;;;5018407;28;20057;-84
2023/03/17 09:54:24;;;;;;;0.00;0.00;;;15.20;99.90;;;;;;5019098;28;20068;-84
2023/03/17 09:57:28;;;;;;;1.45;0.70;;;15.40;99.90;;;;;;5035445;28;20045;-84
2023/03/17 10:00:05;;;;;;;0.00;0.00;;;15.60;99.90;;;;;;4992267;28;20067;-84
2023/03/17 10:02:33;;;;;;;0.10;0.00;;;15.80;99.90;;;;;;5019178;28;20135;-83
2023/03/17 10:05:20;;;;;;;0.00;0.00;;;16.00;99.90;;;;;;5032383;28;20512;-84
2023/03/17 10:08:20;;;;;;;0.10;0.10;;;16.30;99.90;;;;;;5035077;28;20053;-83
2023/03/17 10:10:48;;;;;;;0.00;0.00;;;16.50;99.90;;;;;;5014482;28;20060;-83
2023/03/17 10:13:59;;;;;;;0.15;0.03;;;16.80;99.90;;;;;;5035032;28;20127;-83
2023/03/17 10:16:49;;;;;;;0.00;0.00;;;17.00;99.90;;;;;;5035455;28;20084;-83
2023/03/17 10:19:29;;;;;;;0.35;0.17;;;17.40;99.90;;;;;;5034868;28;20055;-83
2023/03/17 10:22:03;;;;;;;0.00;0.00;;;17.30;99.90;;;;;;5035385;28;20474;-83
2023/03/17 10:24:31;;;;;;;1.45;0.35;;;17.30;99.90;;;;;;5035401;28;20469;-83
2023/03/17 10:27:01;;;;;;;0.00;0.00;;;17.10;99.90;;;;;;5018821;28;20048;-83
2023/03/17 10:29:27;;;;;;;0.00;0.00;;;16.90;99.90;;;;;;5035032;28;20055;-83
2023/03/17 10:31:55;;;;;;;0.15;0.15;;;16.80;99.90;;;;;;5034698;28;20048;-83
2023/03/17 10:34:27;;;;;;;0.55;0.55;;;16.80;99.90;;;;;;5035654;28;20163;-83
2023/03/17 10:37:05;;;;;;;2.20;0.28;;;16.70;99.90;;;;;;5038773;28;20148;-83
2023/03/17 10:39:40;;;;;;;0.60;0.45;;;17.00;99.90;;;;;;5022164;28;20124;-83
2023/03/17 10:42:32;;;;;;;0.10;0.10;;;17.10;99.90;;;;;;5038709;28;20060;-83
2023/03/17 10:45:12;;;;;;;0.10;0.10;;;17.20;99.90;;;;;;5037816;28;20084;-83
2023/03/17 10:47:39;;;;;;;0.00;0.00;;;17.10;99.90;;;;;;5038356;28;20045;-83
2023/03/17 10:50:20;;;;;;;2.33;0.45;;;17.20;99.90;;;;;;5056154;28;20087;-83
2023/03/17 10:52:51;;;;;;;0.28;0.20;;;17.20;99.90;;;;;;5021288;28;20103;-84
2023/03/17 10:55:25;;;;;;;0.00;0.00;;;17.10;99.90;;;;;;5038108;28;20049;-83
2023/03/17 10:58:12;;;;;;;0.00;0.00;;;17.20;99.90;;;;;;5022467;28;20045;-83
2023/03/17 11:00:38;;;;;;;0.00;0.00;;;17.10;99.90;;;;;;5038360;28;20107;-84
2023/03/17 11:03:17;;;;;;;0.20;0.20;;;17.20;99.90;;;;;;5038216;28;20041;-83
2023/03/17 11:06:14;;;;;;;0.00;0.00;;;17.20;99.90;;;;;;5038593;28;20072;-83
2023/03/17 11:08:50;;;;;;;0.00;0.00;;;17.20;99.90;;;;;;5037386;28;20045;-83
2023/03/17 11:11:29;;;;;;;0.00;0.00;;;17.40;99.90;;;;;;5021592;28;20057;-83
2023/03/17 11:14:12;;;;;;;0.93;0.57;;;17.60;99.90;;;;;;5037691;28;20132;-83
2023/03/17 11:16:56;;;;;;;0.10;0.10;;;17.90;99.90;;;;;;5055708;28;20071;-83
2023/03/17 11:19:48;;;;;;;0.00;0.00;;;18.00;98.30;;;;;;5021383;28;20466;-83
2023/03/17 11:22:29;;;;;;;0.05;0.00;;;18.30;98.40;;;;;;5037898;28;20298;-83
2023/03/17 11:25:22;;;;;;;0.10;0.10;;;18.40;96.40;;;;;;5037567;28;20056;-83
2023/03/17 11:28:33;;;;;;;0.10;0.10;;;18.30;89.30;;;;;;5021621;28;20048;-84
2023/03/17 11:31:08;;;;;;;0.10;0.10;;;18.20;85.60;;;;;;4923485;29;20055;-84
2023/03/17 11:34:07;;;;;;;0.13;0.10;;;18.20;84.80;;;;;;4955275;29;20110;-84
2023/03/17 11:36:43;;;;;;;0.22;0.20;;;18.20;80.40;;;;;;5018057;28;20063;-84
2023/03/17 11:39:12;;;;;;;0.10;0.10;;;18.20;78.70;;;;;;5021089;28;20135;-84
2023/03/17 11:41:56;;;;;;;0.50;0.30;;;18.30;76.40;;;;;;5037644;28;20041;-84
2023/03/17 11:44:24;;;;;;;0.00;0.00;;;18.10;63.00;;;;;;5036675;28;20048;-84
2023/03/17 11:47:07;;;;;;;0.05;0.05;;;17.90;61.80;;;;;;5020210;28;20143;-84
2023/03/17 11:49:38;;;;;;;0.00;0.00;;;17.80;60.10;;;;;;5037461;28;20075;-84
2023/03/17 11:52:31;;;;;;;0.00;0.00;;;17.80;66.20;;;;;;5004359;28;20473;-84
2023/03/17 11:55:18;;;;;;;4.78;0.63;;;18.10;71.20;;;;;;5037020;28;20079;-84
2023/03/17 11:57:47;;;;;;;0.00;0.00;;;18.10;62.30;;;;;;5055263;28;20084;-85
2023/03/17 12:00:28;;;;;;;0.00;0.00;;;18.00;65.70;;;;;;5020826;28;20093;-84
2023/03/17 12:03:11;;;;;;;0.17;0.17;;;17.80;71.50;;;;;;5037430;28;20493;-85
2023/03/17 12:05:38;;;;;;;0.00;0.00;;;17.60;71.40;;;;;;5020455;28;20448;-84
2023/03/17 12:08:44;;;;;;;0.25;0.25;;;17.50;70.20;;;;;;5036892;28;20132;-84
2023/03/17 12:11:15;;;;;;;;;;;17.30;68.50;;;;;;5009246;28;20086;-84
2023/03/17 12:13:50;;;;;;;0.20;0.20;;;17.40;72.40;;;;;;5036453;28;20063;-85
2023/03/17 12:16:40;;;;;;;5.18;0.30;;;17.40;74.70;;;;;;5036844;28;20120;-85
2023/03/17 12:19:24;;;;;;;2.55;0.28;;;17.50;75.60;;;;;;5019936;28;20045;-83
2023/03/17 12:22:05;;;;;;;0.00;0.00;;;17.40;75.00;;;;;;5036543;28;20041;-83
2023/03/17 12:24:37;;;;;;;0.00;0.00;;;17.40;74.50;;;;;;5020388;28;20060;-83
2023/03/17 12:27:14;;;;;;;5.35;0.80;;;17.40;77.50;;;;;;5020810;28;20075;-83
2023/03/17 12:29:52;;;;;;;0.10;0.00;;;17.40;81.60;;;;;;5037010;28;20048;-83
2023/03/17 12:32:25;;;;;;;0.00;0.00;;;17.40;83.80;;;;;;5020118;28;20068;-83
2023/03/17 12:34:56;;;;;;;0.00;0.00;;;17.40;77.50;;;;;;5020106;28;20049;-83
2023/03/17 12:37:23;;;;;;;0.00;0.00;;;17.30;74.60;;;;;;5036124;28;20489;-84
2023/03/17 12:40:01;;;;;;;0.05;0.05;;;17.40;80.20;;;;;;5036348;28;20071;-83
2023/03/17 12:42:46;;;;;;;0.08;0.08;;;17.40;74.40;;;;;;5036570;28;20041;-83
2023/03/17 12:45:19;;;;;;;0.00;0.00;;;17.40;76.60;;;;;;5018990;28;20058;-83
2023/03/17 12:48:32;;;;;;;0.03;0.03;;;17.40;75.20;;;;;;5036451;28;20045;-84
2023/03/17 12:51:32;;;;;;;0.03;0.00;;;17.30;73.20;;;;;;5036433;28;20041;-84
2023/03/17 12:53:59;;;;;;;0.00;0.00;;;17.30;74.50;;;;;;5036172;28;20063;-83
2023/03/17 12:56:33;;;;;;;0.00;0.00;;;17.40;75.90;;;;;;5019551;28;20045;-83
2023/03/17 12:59:07;;;;;;;2.35;0.52;;;17.30;74.80;;;;;;5018965;28;20049;-84
2023/03/17 13:01:37;;;;;;;0.10;0.10;;;17.30;79.10;;;;;;5036362;28;20055;-84
2023/03/17 13:04:25;;;;;;;0.10;0.10;;;17.40;73.10;;;;;;5036018;28;20051;-84
2023/03/17 13:07:14;;;;;;;0.00;0.00;;;17.70;77.80;;;;;;5036515;28;20460;-84
2023/03/17 13:10:09;;;;;;;0.30;0.30;;;17.90;80.70;;;;;;5036089;28;20193;-84